Florence, Italy

8:08 PM CET on March 02, 2015 (GMT +0100)
Peretola | Change Station
CLOSE
Current Station
Airport
Location: Florence,
Elevation: 125 ft
Nearby Weather Stations
Active Advisory: Wind

Elev 125 ft 43.81 °N, 11.20 °E | Updated 18 minutes ago

Scattered Clouds
Scattered Clouds
57 °F
Feels Like 57 °F
N
9
Wind Variable Wind from SW

Today
High -- | Low -- °F
--% Chance of Precip.
Yesterday
High -- | Low -- °F
Precip. -- in
6:51 AM 6:04 PM
Waxing Gibbous, 92% visible
Pressure 29.92 in
Visibility 6.2 miles
Clouds Scattered Clouds 1800 ft
Scattered Clouds 3500 ft
Dew Point 52 °F
Humidity 82%
Rainfall 0.00 in
Snow Depth Not available.
UV 0 out of 12
Pollen Not available.
Air Quality Not available.
Flu Activity Not available.
METAR LIRQ 021850Z 23008KT 200V270 9999 SCT018 SCT035 14/11 Q1013

More Conditions Fewer Conditions

Pressure 29.92 in
Visibility 6.2 miles
Clouds Scattered Clouds 1800 ft
Scattered Clouds 3500 ft
Dew Point 52 °F
Humidity 82%
Rainfall 0.00 in
Snow Depth Not available.
UV 0 out of 12
Pollen Not available.
Air Quality Not available.
Flu Activity Not available.
METAR LIRQ 021850Z 23008KT 200V270 9999 SCT018 SCT035 14/11 Q1013

More Conditions Fewer Conditions

10-Day Weather Forecast

Almanac

Astronomy

Mar. 02, 2015 Rise Set
Actual Time
Civil Twilight
Nautical Twilight
Astronomical Twilight
Moon
Length of Visible Light
Length of Day
Tomorrow will be .
, % of the Moon is Illuminated

Today's Extremes

Country Highs Country Lows

Community

WunderPhotos

Upload Photos

1,801,913 photos uploaded!

WunderBlogs® & News

Nearby

Air Quality

  Air Quality AQ Index Pollutant
Not available.

Snow Depth

Station Depth Elevation

Earthquake Activity

City Distance Mag. Time & Date
Minimum magnitude displayed is 2.5.

Coastal Water Temperatures

Place Temperature

Nearby Weather Stations